createdAt,value
2023-11-15T00:00:08.599Z,5.81
2023-11-15T00:02:35.968Z,6.00
2023-11-15T00:05:04.177Z,6.11
2023-11-15T00:07:31.644Z,6.37
2023-11-15T00:09:58.420Z,5.68
2023-11-15T00:12:26.347Z,5.88
2023-11-15T00:14:53.296Z,5.95
2023-11-15T00:17:20.377Z,5.83
2023-11-15T00:19:47.318Z,5.94
2023-11-15T00:22:16.111Z,5.65
2023-11-15T00:24:43.850Z,5.87
2023-11-15T00:27:12.214Z,6.10
2023-11-15T00:29:38.942Z,6.34
2023-11-15T00:32:06.210Z,6.53
2023-11-15T00:34:33.351Z,6.80
2023-11-15T00:37:01.005Z,6.95
2023-11-15T00:39:29.166Z,6.99
2023-11-15T00:41:56.040Z,6.90
2023-11-15T00:44:22.813Z,7.19
2023-11-15T00:46:49.659Z,7.19
2023-11-15T00:49:16.297Z,7.20
2023-11-15T00:51:43.164Z,7.25
2023-11-15T00:54:09.920Z,7.19
2023-11-15T00:56:37.096Z,7.16
2023-11-15T00:59:04.209Z,7.24
2023-11-15T01:01:30.975Z,7.27
2023-11-15T01:03:58.080Z,7.21
2023-11-15T01:06:27.611Z,7.31
2023-11-15T01:08:55.938Z,7.32
2023-11-15T01:11:24.653Z,7.26
2023-11-15T01:13:51.414Z,7.36
2023-11-15T01:16:23.600Z,7.58
2023-11-15T01:18:51.113Z,7.45
2023-11-15T01:21:19.345Z,7.49
2023-11-15T01:23:46.127Z,7.41
2023-11-15T01:26:12.869Z,7.38
2023-11-15T01:28:39.663Z,7.40
2023-11-15T01:31:06.472Z,7.47
2023-11-15T01:33:33.279Z,7.38
2023-11-15T01:36:00.038Z,7.35
2023-11-15T01:38:26.773Z,7.41
2023-11-15T01:40:54.505Z,7.22
2023-11-15T01:43:21.194Z,7.46
2023-11-15T01:45:48.025Z,7.53
2023-11-15T01:48:17.906Z,7.46
2023-11-15T01:50:45.364Z,7.43
2023-11-15T01:53:12.177Z,7.57
2023-11-15T01:55:38.922Z,7.60
2023-11-15T01:58:06.137Z,7.75
2023-11-15T02:00:34.193Z,7.67
2023-11-15T02:03:02.342Z,7.77
2023-11-15T02:05:29.078Z,7.79
2023-11-15T02:07:55.915Z,7.72
2023-11-15T02:10:22.909Z,7.86
2023-11-15T02:12:49.898Z,7.84
2023-11-15T02:15:17.017Z,7.86
2023-11-15T02:17:44.331Z,7.79
2023-11-15T02:20:11.543Z,7.75
2023-11-15T02:22:48.415Z,7.76
2023-11-15T02:25:15.303Z,7.87
2023-11-15T02:27:42.672Z,7.89
2023-11-15T02:30:12.632Z,8.07
2023-11-15T02:32:41.279Z,8.13
2023-11-15T02:35:08.865Z,8.15
2023-11-15T02:37:36.070Z,8.16
2023-11-15T02:40:06.088Z,8.16
2023-11-15T02:42:34.067Z,8.09
2023-11-15T02:45:01.002Z,7.99
2023-11-15T02:47:28.487Z,8.12
2023-11-15T02:49:55.208Z,8.17
2023-11-15T02:52:22.190Z,8.27
2023-11-15T02:54:49.613Z,8.32
2023-11-15T02:57:16.338Z,8.30
2023-11-15T02:59:43.114Z,8.45
2023-11-15T03:02:09.802Z,8.19
2023-11-15T03:04:36.449Z,8.15
2023-11-15T03:07:03.645Z,8.41
2023-11-15T03:09:30.252Z,8.24
2023-11-15T03:11:57.232Z,8.11
2023-11-15T03:14:24.043Z,7.97
2023-11-15T03:16:50.761Z,7.88
2023-11-15T03:19:17.449Z,8.61
2023-11-15T03:21:44.204Z,8.52
2023-11-15T03:24:12.018Z,8.58
2023-11-15T03:26:38.860Z,8.47
2023-11-15T03:29:06.353Z,8.21
2023-11-15T03:31:33.210Z,8.50
2023-11-15T03:34:00.033Z,8.12
2023-11-15T03:36:26.876Z,7.86
2023-11-15T03:38:54.037Z,7.59
2023-11-15T03:41:20.745Z,7.85
2023-11-15T03:43:47.497Z,7.71
2023-11-15T03:46:14.217Z,7.62
2023-11-15T03:48:41.198Z,7.41
2023-11-15T03:51:08.283Z,7.22
2023-11-15T03:53:35.007Z,7.19
2023-11-15T03:56:01.750Z,6.93
2023-11-15T03:58:28.516Z,7.05
2023-11-15T04:00:58.055Z,6.82
2023-11-15T04:03:24.972Z,6.70
2023-11-15T04:05:51.945Z,7.08
2023-11-15T04:08:18.808Z,6.89
2023-11-15T04:10:45.533Z,6.65
2023-11-15T04:13:12.369Z,6.84
2023-11-15T04:15:39.074Z,6.87
2023-11-15T04:18:06.298Z,6.68
2023-11-15T04:20:33.129Z,6.84
2023-11-15T04:22:59.960Z,6.87
2023-11-15T04:25:26.563Z,7.11
2023-11-15T04:27:53.301Z,7.44
2023-11-15T04:30:20.059Z,7.45
2023-11-15T04:32:48.711Z,7.91
2023-11-15T04:35:15.715Z,8.11
2023-11-15T04:37:42.460Z,8.85
2023-11-15T04:40:10.498Z,8.70
2023-11-15T04:42:37.464Z,8.41
2023-11-15T04:45:05.763Z,8.43
2023-11-15T04:47:32.613Z,7.78
2023-11-15T04:49:59.389Z,7.70
2023-11-15T04:52:26.750Z,7.11
2023-11-15T04:54:55.635Z,6.97
2023-11-15T04:57:26.316Z,7.17
2023-11-15T04:59:56.917Z,7.33
2023-11-15T05:02:24.157Z,7.03
2023-11-15T05:04:53.286Z,7.18
2023-11-15T05:07:21.487Z,7.18
2023-11-15T05:09:48.301Z,7.14
2023-11-15T05:12:17.281Z,7.50
2023-11-15T05:14:44.538Z,7.53
2023-11-15T05:17:12.325Z,7.79
2023-11-15T05:19:39.537Z,7.66
2023-11-15T05:22:06.313Z,7.45
2023-11-15T05:24:32.997Z,7.51
2023-11-15T05:26:59.855Z,7.55
2023-11-15T05:29:26.635Z,7.78
2023-11-15T05:31:53.463Z,7.66
2023-11-15T05:34:20.579Z,7.11
2023-11-15T05:36:47.270Z,7.13
2023-11-15T05:39:14.114Z,6.81
2023-11-15T05:41:41.263Z,6.74
2023-11-15T05:44:08.059Z,6.82
2023-11-15T05:46:37.586Z,7.01
2023-11-15T05:49:05.127Z,7.16
2023-11-15T05:51:31.933Z,7.36
2023-11-15T05:53:59.559Z,7.38
2023-11-15T05:56:26.655Z,7.63
2023-11-15T05:58:53.584Z,7.46
2023-11-15T06:01:21.706Z,7.62
2023-11-15T06:03:49.796Z,8.07
2023-11-15T06:06:16.645Z,8.27
2023-11-15T06:08:43.576Z,8.28
2023-11-15T06:11:11.641Z,8.34
2023-11-15T06:13:43.986Z,8.47
2023-11-15T06:16:10.723Z,8.66
2023-11-15T06:18:38.874Z,8.90
2023-11-15T06:21:06.860Z,8.72
2023-11-15T06:23:35.361Z,8.99
2023-11-15T06:26:02.238Z,8.94
2023-11-15T06:28:28.992Z,8.93
2023-11-15T06:30:55.796Z,9.14
2023-11-15T06:33:22.614Z,9.08
2023-11-15T06:35:49.670Z,9.05
2023-11-15T06:38:16.497Z,9.15
2023-11-15T06:40:43.149Z,9.30
2023-11-15T06:43:09.855Z,9.58
2023-11-15T06:45:36.618Z,9.66
2023-11-15T06:48:03.684Z,9.94
2023-11-15T06:50:30.523Z,10.24
2023-11-15T06:52:57.203Z,9.94
2023-11-15T06:55:23.864Z,9.76
2023-11-15T06:57:50.617Z,9.84
2023-11-15T07:00:17.489Z,10.02
2023-11-15T07:02:44.411Z,10.62
2023-11-15T07:05:14.776Z,10.79
2023-11-15T07:07:41.585Z,10.35
2023-11-15T07:10:08.810Z,10.15
2023-11-15T07:12:36.457Z,10.77
2023-11-15T07:15:09.161Z,11.33
2023-11-15T07:17:35.989Z,11.42
2023-11-15T07:20:03.771Z,11.56
2023-11-15T07:22:30.479Z,11.84
2023-11-15T07:24:57.273Z,12.37
2023-11-15T07:27:25.575Z,12.34
2023-11-15T07:29:53.360Z,12.83
2023-11-15T07:32:20.279Z,13.15
2023-11-15T07:34:47.109Z,13.58
2023-11-15T07:37:14.495Z,13.10
2023-11-15T07:39:42.332Z,13.40
2023-11-15T07:42:09.161Z,13.26
2023-11-15T07:44:37.185Z,13.39
2023-11-15T07:47:04.244Z,13.56
2023-11-15T07:49:30.917Z,13.26
2023-11-15T07:51:57.576Z,13.42
2023-11-15T07:54:25.111Z,14.04
2023-11-15T07:56:52.108Z,13.96
2023-11-15T07:59:22.695Z,14.11
2023-11-15T08:01:49.855Z,14.24
2023-11-15T08:04:17.239Z,14.20
2023-11-15T08:06:44.349Z,14.24
2023-11-15T08:09:26.056Z,14.43
2023-11-15T08:11:57.863Z,14.26
2023-11-15T08:14:27.057Z,14.31
2023-11-15T08:16:54.448Z,14.40
2023-11-15T08:19:21.183Z,14.58
2023-11-15T08:21:48.587Z,14.42
2023-11-15T08:24:22.140Z,14.54
2023-11-15T08:26:51.348Z,14.69
2023-11-15T08:29:18.692Z,14.78
2023-11-15T08:31:45.559Z,14.91
2023-11-15T08:34:12.856Z,14.87
2023-11-15T08:36:39.759Z,14.95
2023-11-15T08:39:13.635Z,15.03
2023-11-15T08:41:42.548Z,15.14
2023-11-15T08:44:10.307Z,15.19
2023-11-15T08:46:42.584Z,15.29
2023-11-15T08:49:11.498Z,15.68
2023-11-15T08:51:38.400Z,15.59
2023-11-15T08:54:05.299Z,15.67
2023-11-15T08:56:32.957Z,15.88
2023-11-15T08:59:01.633Z,15.59
2023-11-15T09:01:28.553Z,15.41
2023-11-15T09:03:55.518Z,15.29
2023-11-15T09:06:24.449Z,15.08
2023-11-15T09:08:51.419Z,15.41
2023-11-15T09:11:18.637Z,15.66
2023-11-15T09:13:48.011Z,15.69
2023-11-15T09:16:15.093Z,15.58
2023-11-15T09:18:45.520Z,15.73
2023-11-15T09:21:12.486Z,15.90
2023-11-15T09:23:42.719Z,15.74
2023-11-15T09:26:21.993Z,15.76
2023-11-15T09:28:50.026Z,15.86
2023-11-15T09:31:17.143Z,15.80
2023-11-15T09:33:45.770Z,15.87
2023-11-15T09:36:12.804Z,15.88
2023-11-15T09:38:42.484Z,15.98
2023-11-15T09:41:13.884Z,15.99
2023-11-15T09:43:41.149Z,16.07
2023-11-15T09:46:11.882Z,16.41
2023-11-15T09:48:39.866Z,16.22
2023-11-15T09:51:06.758Z,16.15
2023-11-15T09:53:37.670Z,16.22
2023-11-15T09:56:08.317Z,16.46
2023-11-15T09:58:36.493Z,16.60
2023-11-15T10:01:04.112Z,17.13
2023-11-15T10:03:31.172Z,17.63
2023-11-15T10:06:00.483Z,17.47
2023-11-15T10:08:28.767Z,17.18
2023-11-15T10:11:08.710Z,16.97
2023-11-15T10:13:39.636Z,16.88
2023-11-15T10:16:23.447Z,16.96
2023-11-15T10:18:50.858Z,16.73
2023-11-15T10:21:19.743Z,16.54
2023-11-15T10:23:47.296Z,16.40
2023-11-15T10:26:14.215Z,16.12
2023-11-15T10:28:41.125Z,15.83
2023-11-15T10:31:13.980Z,15.29
2023-11-15T10:33:50.540Z,15.00
2023-11-15T10:36:22.874Z,14.53
2023-11-15T10:38:57.302Z,14.60
2023-11-15T10:41:26.286Z,14.34
2023-11-15T10:43:55.500Z,13.92
2023-11-15T10:46:32.363Z,13.87
2023-11-15T10:49:00.410Z,13.82
2023-11-15T10:51:45.645Z,13.82
2023-11-15T10:54:14.316Z,13.68
2023-11-15T10:56:45.013Z,13.23
2023-11-15T10:59:14.484Z,13.21
2023-11-15T11:01:41.894Z,13.34
2023-11-15T11:04:12.793Z,13.10
2023-11-15T11:06:59.169Z,13.09
2023-11-15T11:09:52.098Z,13.32
2023-11-15T11:12:21.813Z,13.32
2023-11-15T11:14:50.434Z,12.85
2023-11-15T11:17:36.111Z,12.69
2023-11-15T11:20:10.113Z,12.85
2023-11-15T11:22:36.936Z,12.90
2023-11-15T11:25:08.254Z,12.77
2023-11-15T11:27:35.570Z,12.64
2023-11-15T11:30:16.892Z,12.67
2023-11-15T11:32:44.880Z,12.39
2023-11-15T11:35:15.082Z,12.43
2023-11-15T11:37:48.509Z,12.19
2023-11-15T11:40:16.440Z,12.07
2023-11-15T11:42:45.279Z,11.79
2023-11-15T11:45:13.770Z,11.99
2023-11-15T11:47:41.270Z,11.87
2023-11-15T11:50:08.367Z,11.96
2023-11-15T11:52:37.992Z,11.92
2023-11-15T11:55:06.348Z,11.68
2023-11-15T11:57:33.121Z,11.70
2023-11-15T12:00:23.687Z,11.92
2023-11-15T12:03:00.515Z,11.94
2023-11-15T12:05:30.266Z,11.80
2023-11-15T12:07:57.670Z,11.90
2023-11-15T12:10:26.626Z,12.06
2023-11-15T12:13:00.634Z,11.93
2023-11-15T12:15:27.915Z,12.01
2023-11-15T12:18:01.044Z,12.26
2023-11-15T12:20:32.259Z,12.42
2023-11-15T12:23:09.441Z,12.61
2023-11-15T12:25:55.789Z,12.61
2023-11-15T12:28:26.584Z,11.73
2023-11-15T12:30:58.451Z,11.59
2023-11-15T12:33:26.950Z,11.27
2023-11-15T12:35:54.576Z,11.71
2023-11-15T12:38:21.419Z,12.02
2023-11-15T12:40:48.878Z,11.87
2023-11-15T12:43:20.754Z,12.09
2023-11-15T12:45:47.768Z,12.09
2023-11-15T12:48:14.677Z,11.85
2023-11-15T12:50:42.988Z,11.75
2023-11-15T12:53:16.059Z,11.62
2023-11-15T12:55:54.111Z,11.75
2023-11-15T12:58:30.202Z,12.08
2023-11-15T13:01:01.053Z,12.17
2023-11-15T13:03:31.970Z,12.12
2023-11-15T13:06:30.693Z,11.63
2023-11-15T13:09:01.738Z,11.90
2023-11-15T13:11:30.596Z,12.08
2023-11-15T13:13:57.547Z,12.02
2023-11-15T13:16:27.021Z,11.94
2023-11-15T13:18:54.912Z,11.58
2023-11-15T13:21:24.870Z,11.20
2023-11-15T13:23:55.323Z,11.46
2023-11-15T13:26:22.297Z,11.69
2023-11-15T13:28:49.950Z,11.53
2023-11-15T13:31:19.111Z,11.70
2023-11-15T13:33:48.714Z,11.61
2023-11-15T13:36:17.724Z,11.72
2023-11-15T13:38:44.665Z,11.60
2023-11-15T13:41:12.036Z,11.36
2023-11-15T13:43:39.525Z,11.25
2023-11-15T13:46:07.091Z,11.28
2023-11-15T13:48:34.488Z,11.14
2023-11-15T13:51:01.347Z,11.24
2023-11-15T13:53:27.999Z,11.18
2023-11-15T13:55:54.975Z,11.19
2023-11-15T13:58:21.744Z,10.84
2023-11-15T14:00:53.250Z,10.92
2023-11-15T14:03:20.076Z,10.66
2023-11-15T14:05:46.867Z,10.31
2023-11-15T14:08:14.156Z,10.58
2023-11-15T14:10:41.303Z,10.75
2023-11-15T14:13:08.156Z,10.12
2023-11-15T14:15:35.484Z,9.77
2023-11-15T14:18:04.278Z,10.06
2023-11-15T14:20:32.632Z,10.19
2023-11-15T14:22:59.617Z,10.15
2023-11-15T14:25:33.064Z,10.23
2023-11-15T14:28:03.182Z,10.50
2023-11-15T14:30:30.398Z,10.60
2023-11-15T14:32:57.692Z,10.65
2023-11-15T14:35:24.894Z,10.68
2023-11-15T14:37:54.960Z,10.61
2023-11-15T14:40:25.876Z,10.51
2023-11-15T14:42:57.332Z,10.49
2023-11-15T14:45:26.566Z,10.43
2023-11-15T14:47:53.919Z,10.08
2023-11-15T14:50:23.915Z,10.05
2023-11-15T14:52:56.704Z,9.76
2023-11-15T14:55:28.944Z,9.85
2023-11-15T14:57:57.844Z,9.61
2023-11-15T15:00:26.827Z,9.52
2023-11-15T15:02:58.770Z,9.52
2023-11-15T15:05:25.506Z,9.42
2023-11-15T15:07:52.212Z,9.52
2023-11-15T15:10:19.225Z,9.22
2023-11-15T15:12:46.096Z,9.13
2023-11-15T15:15:14.659Z,9.22
2023-11-15T15:17:41.421Z,9.36
2023-11-15T15:20:11.342Z,9.44
2023-11-15T15:22:40.891Z,9.27
2023-11-15T15:25:09.915Z,9.15
2023-11-15T15:27:36.650Z,9.17
2023-11-15T15:30:04.024Z,9.10
2023-11-15T15:32:30.939Z,9.34
2023-11-15T15:34:58.507Z,9.35
2023-11-15T15:37:25.670Z,9.30
2023-11-15T15:39:52.524Z,9.32
2023-11-15T15:42:20.542Z,9.20
2023-11-15T15:44:48.546Z,9.20
2023-11-15T15:47:15.230Z,9.28
2023-11-15T15:49:46.238Z,9.26
2023-11-15T15:52:14.543Z,9.32
2023-11-15T15:54:44.854Z,9.40
2023-11-15T15:57:11.749Z,9.29
2023-11-15T15:59:39.017Z,9.23
2023-11-15T16:02:06.826Z,9.05
2023-11-15T16:04:33.746Z,9.38
2023-11-15T16:07:03.243Z,9.34
2023-11-15T16:09:30.438Z,9.51
2023-11-15T16:11:58.213Z,9.65
2023-11-15T16:14:25.385Z,9.67
2023-11-15T16:16:52.206Z,9.62
2023-11-15T16:19:19.251Z,9.56
2023-11-15T16:21:46.221Z,9.54
2023-11-15T16:24:13.626Z,9.42
2023-11-15T16:26:40.493Z,9.40
2023-11-15T16:29:07.755Z,9.40
2023-11-15T16:31:34.497Z,8.98
2023-11-15T16:34:01.239Z,9.01
2023-11-15T16:36:28.585Z,8.97
2023-11-15T16:38:55.385Z,8.90
2023-11-15T16:41:22.268Z,8.72
2023-11-15T16:43:48.997Z,8.71
2023-11-15T16:46:17.794Z,8.77
2023-11-15T16:48:45.176Z,8.50
2023-11-15T16:51:12.171Z,8.67
2023-11-15T16:53:38.824Z,8.83
2023-11-15T16:56:06.065Z,8.53
2023-11-15T16:58:33.424Z,8.66
2023-11-15T17:01:00.243Z,8.53
2023-11-15T17:03:27.000Z,8.51
2023-11-15T17:05:54.208Z,8.60
2023-11-15T17:08:26.010Z,8.69
2023-11-15T17:10:52.716Z,8.47
2023-11-15T17:13:19.676Z,8.47
2023-11-15T17:15:46.391Z,8.66
2023-11-15T17:18:13.343Z,8.87
2023-11-15T17:20:41.585Z,8.53
2023-11-15T17:23:09.304Z,8.50
2023-11-15T17:25:36.521Z,8.65
2023-11-15T17:28:06.358Z,8.46
2023-11-15T17:30:34.533Z,8.47
2023-11-15T17:33:02.570Z,8.32
2023-11-15T17:35:29.423Z,8.41
2023-11-15T17:37:56.191Z,8.17
2023-11-15T17:40:23.050Z,8.15
2023-11-15T17:42:49.809Z,8.19
2023-11-15T17:45:16.754Z,8.22
2023-11-15T17:47:43.625Z,8.47
2023-11-15T17:50:11.065Z,8.54
2023-11-15T17:52:41.595Z,8.32
2023-11-15T17:55:09.805Z,8.26
2023-11-15T17:57:36.678Z,8.45
2023-11-15T18:00:11.247Z,8.47
2023-11-15T18:02:38.057Z,8.33
2023-11-15T18:05:04.996Z,8.45
2023-11-15T18:07:31.632Z,8.24
2023-11-15T18:09:58.388Z,8.33
2023-11-15T18:12:25.133Z,8.42
2023-11-15T18:14:52.103Z,8.47
2023-11-15T18:17:18.776Z,8.30
2023-11-15T18:19:45.486Z,8.15
2023-11-15T18:22:12.303Z,8.19
2023-11-15T18:24:39.130Z,8.18
2023-11-15T18:27:07.930Z,8.06
2023-11-15T18:29:35.493Z,8.16
2023-11-15T18:32:02.478Z,8.33
2023-11-15T18:34:29.364Z,8.10
2023-11-15T18:36:56.336Z,7.98
2023-11-15T18:39:23.088Z,8.18
2023-11-15T18:41:50.126Z,8.17
2023-11-15T18:44:19.696Z,8.16
2023-11-15T18:46:53.522Z,7.96
2023-11-15T18:49:21.947Z,8.21
2023-11-15T18:51:48.653Z,8.32
2023-11-15T18:54:15.545Z,8.47
2023-11-15T18:56:42.384Z,8.32
2023-11-15T18:59:09.033Z,8.14
2023-11-15T19:01:35.767Z,8.12
2023-11-15T19:04:03.958Z,8.00
2023-11-15T19:06:33.373Z,8.01
2023-11-15T19:09:00.638Z,8.23
2023-11-15T19:11:28.509Z,8.18
2023-11-15T19:13:58.764Z,8.14
2023-11-15T19:16:28.984Z,8.13
2023-11-15T19:18:56.856Z,8.46
2023-11-15T19:21:26.524Z,8.35
2023-11-15T19:23:53.329Z,8.42
2023-11-15T19:26:22.182Z,8.36
2023-11-15T19:28:50.364Z,8.52
2023-11-15T19:31:16.998Z,8.33
2023-11-15T19:33:43.815Z,8.52
2023-11-15T19:36:10.918Z,8.34
2023-11-15T19:38:38.109Z,8.48
2023-11-15T19:41:05.901Z,8.48
2023-11-15T19:43:32.529Z,8.32
2023-11-15T19:46:00.033Z,8.42
2023-11-15T19:48:27.212Z,8.05
2023-11-15T19:50:54.150Z,7.97
2023-11-15T19:53:21.269Z,7.83
2023-11-15T19:55:48.190Z,7.73
2023-11-15T19:58:14.963Z,7.87
2023-11-15T20:00:42.160Z,7.95
2023-11-15T20:03:11.284Z,8.53
2023-11-15T20:05:39.966Z,8.87
2023-11-15T20:08:07.446Z,9.07
2023-11-15T20:10:34.160Z,8.98
2023-11-15T20:13:00.873Z,8.61
2023-11-15T20:15:28.162Z,8.33
2023-11-15T20:17:54.972Z,8.27
2023-11-15T20:20:24.378Z,8.64
2023-11-15T20:22:53.028Z,8.54
2023-11-15T20:25:21.373Z,8.61
2023-11-15T20:27:48.163Z,8.22
2023-11-15T20:30:15.447Z,7.97
2023-11-15T20:32:42.491Z,7.83
2023-11-15T20:35:09.498Z,7.89
2023-11-15T20:37:36.376Z,7.93
2023-11-15T20:40:05.963Z,7.83
2023-11-15T20:42:33.012Z,7.74
2023-11-15T20:44:59.800Z,7.88
2023-11-15T20:47:26.589Z,8.06
2023-11-15T20:49:53.344Z,7.92
2023-11-15T20:52:20.232Z,7.80
2023-11-15T20:54:47.065Z,7.90
2023-11-15T20:57:13.898Z,7.80
2023-11-15T20:59:40.683Z,7.72
2023-11-15T21:02:07.680Z,7.74
2023-11-15T21:04:34.829Z,7.87
2023-11-15T21:07:01.760Z,7.86
2023-11-15T21:09:28.447Z,7.77
2023-11-15T21:11:56.329Z,7.71
2023-11-15T21:14:23.347Z,7.68
2023-11-15T21:16:50.231Z,7.60
2023-11-15T21:19:19.514Z,7.61
2023-11-15T21:21:47.302Z,7.69
2023-11-15T21:24:13.973Z,7.52
2023-11-15T21:26:45.431Z,7.43
2023-11-15T21:29:12.575Z,7.48
2023-11-15T21:31:41.140Z,7.52
2023-11-15T21:34:09.112Z,7.56
2023-11-15T21:36:37.477Z,7.56
2023-11-15T21:39:05.537Z,7.48
2023-11-15T21:41:32.324Z,7.33
2023-11-15T21:44:00.648Z,7.33
2023-11-15T21:46:29.761Z,7.36
2023-11-15T21:48:56.936Z,7.49
2023-11-15T21:51:23.786Z,7.30
2023-11-15T21:53:54.279Z,7.14
2023-11-15T21:56:21.833Z,7.14
2023-11-15T21:58:48.818Z,7.21
2023-11-15T22:01:15.680Z,7.28
2023-11-15T22:03:43.136Z,7.31
2023-11-15T22:06:10.134Z,7.13
2023-11-15T22:08:36.933Z,7.20
2023-11-15T22:11:05.709Z,7.01
2023-11-15T22:13:32.819Z,6.91
2023-11-15T22:15:59.579Z,7.10
2023-11-15T22:18:28.987Z,6.84
2023-11-15T22:20:56.399Z,6.85
2023-11-15T22:23:23.046Z,6.93
2023-11-15T22:25:49.754Z,6.91
2023-11-15T22:28:16.494Z,6.92
2023-11-15T22:30:43.718Z,6.80
2023-11-15T22:33:12.106Z,6.99
2023-11-15T22:35:38.826Z,6.97
2023-11-15T22:38:05.630Z,7.04
2023-11-15T22:40:32.395Z,6.95
2023-11-15T22:43:04.372Z,6.88
2023-11-15T22:45:31.744Z,6.77
2023-11-15T22:47:59.570Z,6.82
2023-11-15T22:50:26.498Z,7.18
2023-11-15T22:52:53.154Z,7.58
2023-11-15T22:55:19.804Z,7.30
2023-11-15T22:57:46.542Z,7.13
2023-11-15T23:00:26.743Z,7.30
2023-11-15T23:02:54.703Z,7.09
2023-11-15T23:05:21.776Z,6.69
2023-11-15T23:07:49.587Z,6.61
2023-11-15T23:10:16.897Z,6.55
2023-11-15T23:12:43.800Z,6.60
2023-11-15T23:15:12.368Z,6.95
2023-11-15T23:17:39.265Z,7.08
2023-11-15T23:20:06.415Z,6.84
2023-11-15T23:22:33.170Z,6.92
2023-11-15T23:25:00.322Z,7.05
2023-11-15T23:27:27.189Z,7.15
2023-11-15T23:29:54.004Z,7.10
2023-11-15T23:32:23.544Z,7.06
2023-11-15T23:34:50.445Z,7.14
2023-11-15T23:37:17.082Z,6.97
2023-11-15T23:39:43.933Z,6.93
2023-11-15T23:42:12.859Z,6.94
2023-11-15T23:44:40.147Z,6.90
2023-11-15T23:47:07.257Z,7.14
2023-11-15T23:49:34.360Z,6.91
2023-11-15T23:52:01.198Z,6.93
2023-11-15T23:54:27.992Z,7.20
2023-11-15T23:56:56.403Z,7.22
2023-11-15T23:59:23.670Z,7.34
